Satellite Precipitation Estimates (TXUS20 KWBC)
Issued by NWS

Home | Current Version | Previous Version | Text Only | Print | Product List | Glossary On
Versions: 1 2 3 4 5
000
SPTD31 TTPP 191924 RRA
SPECI
TTCP 191918Z 10010G35KT 0500 +SHRA FEW012CB SCT014 26/24 Q1016=



USA.gov is the U.S. government's official web portal to all federal, state and local government web resources and services.